Browse Search Popular Register Upload Rules User list Login:
Search:
FruitMonger
Username: FruitMonger
Date registered: 2009/11/18 23:24:22
Scenes: 381
Subscribers: 32
Comments: 462
Downloads by you: 2619
Title Author Rating Downloads Comments Date added
Bicycle Drivetrain Prototype FruitMonger 5 (1 vote) 417 0 2017/12/24 15:43:37
Simple Plane FruitMonger 5 (1 vote) 310 0 2017/03/26 19:43:17
Black Powder Cannon FruitMonger 6.1 (3 votes) 5345 6 2016/12/24 02:54:59
Cutting a Floating "Dowel Rod" FruitMonger 5 (1 vote) 306 0 2016/11/06 11:02:30
HELP NEEDED! Pneumatic Sliding Jack; Does This Exist? FruitMonger 5 (1 vote) 686 1 2016/09/18 17:44:51
GB Symbol and Concept Goat FruitMonger 5 (1 vote) 104 0 2016/08/28 16:03:28
Gear Reduction Fun FruitMonger 5 (1 vote) 170 0 2016/07/24 23:27:38
Fixed Blade Knife with Folding Blade Cover Concept FruitMonger 5.4 (2 votes) 387 1 2016/07/17 07:14:15
Aperture FruitMonger 5.6 (2 votes) 187 1 2016/07/15 10:04:40
Air Thruster FruitMonger 5 (1 vote) 335 0 2016/05/15 14:54:22
Folding Pry-Bar Blue-Print (sort of) FruitMonger 5.6 (2 votes) 423 2 2016/04/22 11:11:52
Wind Tunnel with Airfoil FruitMonger 5.4 (2 votes) 439 0 2016/01/04 07:26:32
Single Shot Slide Action Handgun (Work In Progress) FruitMonger 5 (1 vote) 386 2 2015/08/28 13:44:42
Grass Concept FruitMonger 5 (1 vote) 410 0 2015/05/02 05:50:51
100% Physical "Engine" FruitMonger 5 (1 vote) 890 1 2015/02/28 10:56:48
Gravity Motor + Ratchet Lift w/ Clutch FruitMonger 5 (1 vote) 1224 4 2015/02/21 10:09:11
Chain Sword 1.1 FruitMonger 5 (1 vote) 1487 2 2014/06/03 18:00:52
Why Isn't This Working? FruitMonger 5 (1 vote) 473 4 2014/02/13 22:41:24
Lidded Box FruitMonger 5 (1 vote) 357 0 2013/12/20 23:50:50
Springdraulic Arm + Challenge FruitMonger 5 (1 vote) 575 4 2013/10/12 16:03:13
"PSP 1000 Fat" Prop FruitMonger 6.1 (3 votes) 1271 4 2013/08/18 23:40:42
Wind Tunnel FruitMonger 5 (1 vote) 974 1 2013/08/15 16:35:51
Aperture Science Logo 2.0 FruitMonger 5 (1 vote) 564 0 2013/08/05 21:42:23
Aperture Science Logo FruitMonger 5 (1 vote) 561 0 2013/08/05 05:17:14
Underbarrel Grenade Launcher FruitMonger 5 (1 vote) 2286 2 2013/07/18 00:06:29
Simple Car + CVT FruitMonger 5 (1 vote) 223 2 2013/07/16 20:54:10
Game Example with Active Horizon+Active Sun FruitMonger 5 (1 vote) 1452 2 2013/07/15 02:49:27
Active Horizon+Active Sun FruitMonger 5 (1 vote) 314 1 2013/07/15 00:09:21
Cable Snake; Kinetic Art FruitMonger 5 (1 vote) 813 0 2013/07/06 23:33:10
Bolt Action Rifle; Straight Pull Bolt FruitMonger 5.5 (2 votes) 1683 1 2013/06/22 23:19:21
show grid